Hlavní strana
METAR-TAF:

METAR-TAF

Letiště :

Rimini, Itálie

zeměpisná šířka: 44-02N, zeměpisná délka: 012-37E, výška: 12 m

Aktuální stav počasí

Zpráva byla vytvořena před 37 minutami, v 16:50 UTC
Severovýchodní vítr 8 kt, proměnlivý mezi severoseverovýchodním a východním
Teplota 12°C
Vlhkost vzduchu 58%
Tlak 1022 hPa
Viditelnost 10 km a více
Skoro jasno ve výšce 3500 ft
Polojasno ve výšce 7000 ft

METAR: LIPR 171650Z 05008KT 020V080 9999 FEW035 SCT070 12/04 Q1022

Čas: 18:27 (17:27 UTC)

Předpověď počasí

Zpráva byla vytvořena před 3 hodinami a 27 minutami, v 14:00 UTC
Předpověď platná od 17 v 15 UTC do 17 v 24 UTC
Severovýchodní vítr 15 kt
Viditelnost 10 km a více
Polojasno ve výšce 4000 ft

TAF: LIPR 171400Z 1715/1724 05015KT 9999 SCT040

Stav a předpovědi počasí z více než 4 000 letišť (zprávy METAR a TAF).

Červené a žluté tečky na mapě představují dostupné meteorologické stanice.

Když kurzor umístíte na tečku, zobrazí se název stanice.

Pak kliknutím zobrazíte stav a předpověď počasí.

Chcete-li změnit mapu, kliknutím na zelené tlačítko se znaménkem +mapu přiblížíte, kliknutím na zelené tlačítko se znaménkem – mapu oddálíte a kliknutím na zelené šipky přejdete na sousední mapy.


METAR-TAF: